createdAt,value
2019-06-01T00:01:15.815Z,5.60
2019-06-01T00:03:46.527Z,5.60
2019-06-01T00:06:16.281Z,5.20
2019-06-01T00:08:47.217Z,5.58
2019-06-01T00:11:17.042Z,5.57
2019-06-01T00:13:47.707Z,6.20
2019-06-01T00:16:17.705Z,5.53
2019-06-01T00:18:48.323Z,6.03
2019-06-01T00:21:18.302Z,5.40
2019-06-01T00:23:48.667Z,5.30
2019-06-01T00:26:18.957Z,5.43
2019-06-01T00:28:49.991Z,5.58
2019-06-01T00:31:19.941Z,5.07
2019-06-01T00:33:49.919Z,6.28
2019-06-01T00:36:19.547Z,5.37
2019-06-01T00:38:49.942Z,5.50
2019-06-01T00:41:19.995Z,5.47
2019-06-01T00:43:50.471Z,5.33
2019-06-01T00:46:20.323Z,5.63
2019-06-01T00:48:50.048Z,5.80
2019-06-01T00:51:19.782Z,5.43
2019-06-01T00:53:49.688Z,5.58
2019-06-01T00:56:19.374Z,5.43
2019-06-01T00:58:49.813Z,6.30
2019-06-01T01:01:19.570Z,5.30
2019-06-01T01:03:50.184Z,5.50
2019-06-01T01:06:19.974Z,5.57
2019-06-01T01:08:50.861Z,5.97
2019-06-01T01:11:20.586Z,5.27
2019-06-01T01:13:51.284Z,5.90
2019-06-01T01:16:20.966Z,5.67
2019-06-01T01:18:51.844Z,5.72
2019-06-01T01:21:21.695Z,5.67
2019-06-01T01:23:53.000Z,5.60
2019-06-01T01:26:22.785Z,5.90
2019-06-01T01:28:52.963Z,6.33
2019-06-01T01:31:22.656Z,5.50
2019-06-01T01:33:53.441Z,5.80
2019-06-01T01:36:23.226Z,5.10
2019-06-01T01:38:54.248Z,5.90
2019-06-01T01:41:23.934Z,5.50
2019-06-01T01:43:54.623Z,6.03
2019-06-01T01:46:24.256Z,5.67
2019-06-01T01:48:54.244Z,6.33
2019-06-01T01:51:23.811Z,6.20
2019-06-01T01:53:54.614Z,5.73
2019-06-01T01:56:25.022Z,6.90
2019-06-01T01:58:54.613Z,6.23
2019-06-01T02:01:24.266Z,5.90
2019-06-01T02:03:55.505Z,6.93
2019-06-01T02:06:29.011Z,7.35
2019-06-01T02:08:57.608Z,7.43
2019-06-01T02:11:27.539Z,7.80
2019-06-01T02:13:57.782Z,7.00
2019-06-01T02:16:27.596Z,7.10
2019-06-01T02:18:58.759Z,6.20
2019-06-01T02:21:28.498Z,6.33
2019-06-01T02:23:59.041Z,7.00
2019-06-01T02:26:28.751Z,6.80
2019-06-01T02:28:59.481Z,7.00
2019-06-01T02:31:41.026Z,7.10
2019-06-01T02:34:02.883Z,7.07
2019-06-01T02:36:33.059Z,7.47
2019-06-01T02:39:05.309Z,7.15
2019-06-01T02:41:35.413Z,7.13
2019-06-01T02:44:06.349Z,7.57
2019-06-01T02:46:36.433Z,7.10
2019-06-01T02:49:06.476Z,7.33
2019-06-01T02:51:36.074Z,6.33
2019-06-01T02:54:06.289Z,6.90
2019-06-01T02:56:36.129Z,7.13
2019-06-01T02:59:06.781Z,7.23
2019-06-01T03:01:38.223Z,6.70
2019-06-01T03:04:10.135Z,6.50
2019-06-01T03:06:42.730Z,6.35
2019-06-01T03:09:13.020Z,6.33
2019-06-01T03:11:43.037Z,5.92
2019-06-01T03:14:13.171Z,6.20
2019-06-01T03:16:43.534Z,5.70
2019-06-01T03:19:16.564Z,6.30
2019-06-01T03:21:49.550Z,6.10
2019-06-01T03:24:22.154Z,6.30
2019-06-01T03:26:53.890Z,6.08
2019-06-01T03:29:26.781Z,6.17
2019-06-01T03:32:17.745Z,6.07
2019-06-01T03:34:27.855Z,5.77
2019-06-01T03:36:57.954Z,6.23
2019-06-01T03:39:28.263Z,6.00
2019-06-01T03:41:58.137Z,5.90
2019-06-01T03:44:27.778Z,6.20
2019-06-01T03:46:57.407Z,5.27
2019-06-01T03:49:27.240Z,5.70
2019-06-01T03:51:56.876Z,5.95
2019-06-01T03:54:26.697Z,6.10
2019-06-01T03:56:56.269Z,6.20
2019-06-01T03:59:26.048Z,6.58
2019-06-01T04:01:55.861Z,6.67
2019-06-01T04:04:25.431Z,6.50
2019-06-01T04:06:54.986Z,6.33
2019-06-01T04:09:24.726Z,6.63
2019-06-01T04:11:54.286Z,6.87
2019-06-01T04:14:24.089Z,6.87
2019-06-01T04:16:53.648Z,7.03
2019-06-01T04:19:23.259Z,7.03
2019-06-01T04:21:52.849Z,6.47
2019-06-01T04:24:22.607Z,7.20
2019-06-01T04:26:52.338Z,6.90
2019-06-01T04:29:21.920Z,7.08
2019-06-01T04:31:51.499Z,7.17
2019-06-01T04:34:21.160Z,7.57
2019-06-01T04:36:50.801Z,7.47
2019-06-01T04:39:20.385Z,8.00
2019-06-01T04:41:50.027Z,7.30
2019-06-01T04:44:19.691Z,7.90
2019-06-01T04:46:49.275Z,7.95
2019-06-01T04:49:19.004Z,7.42
2019-06-01T04:51:48.606Z,7.55
2019-06-01T04:54:18.192Z,8.33
2019-06-01T04:56:47.782Z,8.10
2019-06-01T04:59:17.398Z,7.50
2019-06-01T05:01:47.058Z,8.15
2019-06-01T05:04:16.626Z,7.70
2019-06-01T05:06:46.288Z,8.30
2019-06-01T05:09:15.960Z,6.60
2019-06-01T05:11:45.594Z,7.00
2019-06-01T05:14:16.504Z,7.10
2019-06-01T05:16:46.404Z,7.58
2019-06-01T05:19:16.746Z,8.00
2019-06-01T05:21:46.370Z,7.10
2019-06-01T05:24:17.105Z,7.60
2019-06-01T05:26:47.050Z,6.80
2019-06-01T05:29:18.091Z,7.10
2019-06-01T05:31:47.962Z,8.35
2019-06-01T05:34:18.424Z,7.20
2019-06-01T05:36:48.407Z,7.47
2019-06-01T05:39:18.813Z,7.90
2019-06-01T05:41:48.421Z,7.97
2019-06-01T05:44:19.212Z,8.05
2019-06-01T05:46:49.084Z,7.47
2019-06-01T05:49:18.756Z,8.07
2019-06-01T05:51:48.321Z,7.37
2019-06-01T05:54:18.868Z,8.35
2019-06-01T05:56:48.663Z,8.83
2019-06-01T05:59:18.435Z,8.27
2019-06-01T06:01:48.043Z,7.95
2019-06-01T06:04:17.691Z,7.80
2019-06-01T06:06:47.395Z,8.27
2019-06-01T06:09:17.189Z,8.20
2019-06-01T06:11:46.823Z,7.83
2019-06-01T06:14:17.568Z,8.07
2019-06-01T06:16:47.242Z,8.30
2019-06-01T06:19:20.016Z,8.33
2019-06-01T06:21:48.194Z,8.45
2019-06-01T06:24:18.533Z,8.27
2019-06-01T06:26:48.297Z,9.25
2019-06-01T06:29:18.915Z,8.40
2019-06-01T06:31:48.543Z,8.65
2019-06-01T06:34:19.606Z,8.80
2019-06-01T06:36:49.406Z,8.75
2019-06-01T06:39:20.033Z,9.68
2019-06-01T06:41:49.757Z,9.13
2019-06-01T06:44:20.523Z,10.23
2019-06-01T06:46:50.282Z,9.40
2019-06-01T06:49:21.312Z,8.17
2019-06-01T06:51:51.263Z,8.53
2019-06-01T06:54:21.846Z,8.23
2019-06-01T06:56:51.481Z,7.40
2019-06-01T06:59:22.471Z,7.10
2019-06-01T07:01:52.204Z,8.47
2019-06-01T07:04:21.837Z,9.17
2019-06-01T07:06:51.416Z,9.40
2019-06-01T07:09:21.919Z,9.37
2019-06-01T07:11:51.658Z,8.30
2019-06-01T07:14:21.408Z,8.30
2019-06-01T07:16:51.056Z,7.87
2019-06-01T07:19:21.577Z,8.83
2019-06-01T07:21:51.297Z,8.07
2019-06-01T07:24:21.751Z,8.17
2019-06-01T07:26:51.563Z,7.50
2019-06-01T07:29:22.080Z,8.63
2019-06-01T07:31:51.917Z,7.23
2019-06-01T07:34:33.533Z,7.93
2019-06-01T07:36:52.858Z,7.40
2019-06-01T07:39:22.788Z,7.80
2019-06-01T07:41:52.339Z,8.20
2019-06-01T07:44:22.757Z,8.03
2019-06-01T07:46:52.418Z,8.90
2019-06-01T07:49:23.189Z,7.73
2019-06-01T07:51:53.019Z,7.50
2019-06-01T07:54:24.741Z,7.30
2019-06-01T07:56:54.385Z,6.43
2019-06-01T07:59:24.577Z,7.73
2019-06-01T08:01:55.478Z,7.27
2019-06-01T08:04:26.703Z,6.57
2019-06-01T08:06:56.922Z,7.10
2019-06-01T08:09:27.918Z,6.50
2019-06-01T08:11:57.820Z,7.30
2019-06-01T08:14:28.634Z,5.93
2019-06-01T08:16:58.198Z,5.97
2019-06-01T08:19:28.128Z,5.10
2019-06-01T08:21:57.785Z,5.10
2019-06-01T08:24:28.320Z,5.20
2019-06-01T08:26:58.012Z,5.20
2019-06-01T08:29:28.842Z,6.67
2019-06-01T08:31:59.448Z,5.07
2019-06-01T08:34:29.245Z,3.70
2019-06-01T08:36:58.801Z,4.23
2019-06-01T08:39:29.436Z,3.97
2019-06-01T08:41:59.390Z,3.83
2019-06-01T08:44:29.587Z,4.63
2019-06-01T08:46:59.139Z,3.37
2019-06-01T08:49:30.573Z,3.43
2019-06-01T08:51:59.985Z,3.83
2019-06-01T08:54:30.309Z,3.53
2019-06-01T08:57:00.390Z,3.73
2019-06-01T08:59:30.393Z,3.90
2019-06-01T09:02:00.075Z,4.13
2019-06-01T09:04:30.769Z,3.57
2019-06-01T09:07:00.590Z,3.30
2019-06-01T09:09:31.008Z,2.83
2019-06-01T09:12:00.626Z,2.50
2019-06-01T09:14:31.376Z,2.50
2019-06-01T09:17:01.027Z,2.90
2019-06-01T09:19:31.557Z,2.77
2019-06-01T09:22:01.317Z,3.20
2019-06-01T09:24:31.946Z,2.80
2019-06-01T09:27:01.765Z,2.93
2019-06-01T09:29:32.131Z,2.83
2019-06-01T09:32:01.850Z,2.60
2019-06-01T09:34:32.419Z,2.60
2019-06-01T09:37:02.216Z,2.60
2019-06-01T09:39:33.084Z,2.70
2019-06-01T09:42:03.534Z,2.67
2019-06-01T09:44:33.601Z,2.63
2019-06-01T09:47:03.207Z,3.10
2019-06-01T09:49:34.073Z,2.37
2019-06-01T09:52:03.931Z,2.90
2019-06-01T09:54:34.728Z,2.40
2019-06-01T09:57:05.278Z,2.83
2019-06-01T09:59:36.006Z,2.73
2019-06-01T10:02:05.797Z,2.40
2019-06-01T10:04:36.486Z,2.40
2019-06-01T10:07:06.190Z,2.67
2019-06-01T10:09:35.836Z,2.73
2019-06-01T10:12:05.729Z,2.67
2019-06-01T10:14:36.194Z,2.67
2019-06-01T10:17:05.841Z,3.20
2019-06-01T10:19:36.734Z,3.00
2019-06-01T10:22:06.448Z,3.00
2019-06-01T10:24:37.144Z,3.00
2019-06-01T10:27:06.769Z,2.73
2019-06-01T10:29:36.750Z,2.30
2019-06-01T10:32:06.714Z,2.80
2019-06-01T10:34:37.709Z,2.67
2019-06-01T10:37:07.418Z,2.47
2019-06-01T10:39:37.267Z,2.43
2019-06-01T10:42:06.865Z,2.70
2019-06-01T10:44:41.175Z,2.43
2019-06-01T10:47:07.699Z,2.40
2019-06-01T10:49:37.998Z,2.52
2019-06-01T10:52:07.837Z,2.67
2019-06-01T10:54:38.311Z,2.60
2019-06-01T10:57:08.054Z,2.50
2019-06-01T10:59:38.429Z,2.65
2019-06-01T11:02:08.324Z,2.50
2019-06-01T11:04:38.929Z,2.27
2019-06-01T11:07:08.554Z,2.90
2019-06-01T11:09:38.976Z,2.65
2019-06-01T11:12:08.493Z,2.40
2019-06-01T11:14:39.097Z,2.42
2019-06-01T11:17:08.651Z,2.50
2019-06-01T11:19:39.458Z,2.42
2019-06-01T11:22:09.168Z,2.50
2019-06-01T11:24:39.527Z,2.45
2019-06-01T11:27:09.083Z,2.40
2019-06-01T11:29:46.063Z,2.45
2019-06-01T11:32:09.936Z,2.30
2019-06-01T11:34:40.285Z,2.30
2019-06-01T11:37:14.894Z,2.40
2019-06-01T11:39:42.561Z,2.08
2019-06-01T11:42:12.228Z,2.30
2019-06-01T11:44:42.847Z,2.15
2019-06-01T11:47:12.532Z,2.20
2019-06-01T11:49:42.849Z,1.90
2019-06-01T11:52:12.492Z,2.70
2019-06-01T11:54:43.271Z,2.25
2019-06-01T11:57:13.634Z,2.63
2019-06-01T11:59:43.561Z,2.02
2019-06-01T12:02:13.206Z,2.50
2019-06-01T12:04:44.055Z,2.37
2019-06-01T12:07:17.983Z,2.30
2019-06-01T12:09:46.073Z,2.20
2019-06-01T12:12:15.657Z,2.37
2019-06-01T12:14:46.661Z,1.97
2019-06-01T12:17:16.340Z,2.10
2019-06-01T12:19:46.988Z,2.20
2019-06-01T12:22:16.685Z,2.53
2019-06-01T12:24:47.377Z,2.45
2019-06-01T12:27:17.109Z,2.37
2019-06-01T12:29:48.261Z,2.13
2019-06-01T12:32:18.067Z,2.37
2019-06-01T12:34:48.469Z,2.50
2019-06-01T12:37:36.079Z,2.17
2019-06-01T12:39:52.951Z,2.27
2019-06-01T12:42:20.940Z,2.93
2019-06-01T12:44:50.500Z,2.20
2019-06-01T12:47:20.290Z,2.20
2019-06-01T12:49:49.806Z,2.27
2019-06-01T12:52:19.387Z,2.40
2019-06-01T12:54:49.132Z,2.30
2019-06-01T12:57:18.621Z,2.30
2019-06-01T12:59:48.205Z,2.42
2019-06-01T13:02:17.812Z,2.10
2019-06-01T13:04:48.934Z,2.15
2019-06-01T13:07:18.704Z,2.27
2019-06-01T13:09:48.629Z,2.08
2019-06-01T13:12:18.337Z,2.20
2019-06-01T13:14:49.256Z,2.22
2019-06-01T13:17:18.887Z,2.10
2019-06-01T13:19:49.569Z,2.17
2019-06-01T13:22:19.231Z,2.47
2019-06-01T13:24:49.884Z,2.00
2019-06-01T13:27:19.556Z,2.47
2019-06-01T13:29:50.166Z,2.03
2019-06-01T13:32:19.909Z,2.40
2019-06-01T13:34:49.482Z,2.25
2019-06-01T13:37:19.147Z,2.30
2019-06-01T13:39:54.606Z,2.58
2019-06-01T13:42:20.157Z,2.30
2019-06-01T13:44:49.792Z,2.08
2019-06-01T13:47:19.380Z,2.00
2019-06-01T13:49:50.125Z,1.90
2019-06-01T13:52:19.707Z,2.10
2019-06-01T13:54:50.571Z,1.85
2019-06-01T13:57:20.238Z,2.03
2019-06-01T13:59:50.908Z,2.20
2019-06-01T14:02:20.734Z,2.30
2019-06-01T14:04:50.370Z,2.40
2019-06-01T14:07:19.948Z,2.37
2019-06-01T14:09:49.635Z,2.30
2019-06-01T14:12:19.264Z,2.20
2019-06-01T14:14:49.391Z,2.00
2019-06-01T14:17:18.986Z,2.20
2019-06-01T14:19:49.668Z,2.30
2019-06-01T14:22:19.317Z,2.10
2019-06-01T14:25:06.447Z,2.37
2019-06-01T14:27:20.340Z,2.37
2019-06-01T14:29:50.290Z,2.10
2019-06-01T14:32:19.976Z,2.07
2019-06-01T14:34:51.071Z,2.77
2019-06-01T14:37:21.818Z,2.53
2019-06-01T14:39:52.799Z,2.35
2019-06-01T14:42:22.445Z,2.17
2019-06-01T14:44:52.292Z,2.13
2019-06-01T14:47:22.467Z,2.10
2019-06-01T14:49:53.466Z,2.10
2019-06-01T14:52:23.070Z,1.97
2019-06-01T14:54:53.754Z,2.12
2019-06-01T14:57:23.372Z,2.33
2019-06-01T14:59:54.222Z,2.13
2019-06-01T15:02:23.865Z,2.33
2019-06-01T15:04:54.304Z,2.17
2019-06-01T15:07:24.015Z,2.20
2019-06-01T15:09:54.274Z,2.30
2019-06-01T15:12:24.395Z,1.77
2019-06-01T15:14:55.470Z,2.10
2019-06-01T15:17:25.210Z,2.17
2019-06-01T15:19:56.091Z,3.10
2019-06-01T15:22:25.856Z,2.50
2019-06-01T15:24:56.444Z,2.90
2019-06-01T15:27:26.180Z,2.30
2019-06-01T15:29:56.949Z,2.17
2019-06-01T15:32:26.905Z,2.37
2019-06-01T15:34:56.647Z,2.40
2019-06-01T15:37:26.585Z,3.00
2019-06-01T15:39:56.742Z,2.40
2019-06-01T15:42:26.396Z,2.40
2019-06-01T15:44:56.981Z,2.40
2019-06-01T15:47:26.918Z,2.30
2019-06-01T15:49:57.917Z,2.20
2019-06-01T15:52:27.711Z,2.60
2019-06-01T15:54:58.322Z,2.90
2019-06-01T15:57:28.035Z,2.80
2019-06-01T15:59:58.609Z,2.80
2019-06-01T16:02:28.263Z,2.70
2019-06-01T16:04:59.176Z,2.50
2019-06-01T16:07:28.865Z,2.60
2019-06-01T16:09:59.373Z,2.90
2019-06-01T16:12:29.210Z,2.30
2019-06-01T16:14:59.749Z,3.00
2019-06-01T16:17:29.369Z,2.90
2019-06-01T16:19:59.984Z,3.03
2019-06-01T16:22:29.728Z,2.77
2019-06-01T16:25:00.307Z,2.43
2019-06-01T16:27:30.102Z,2.60
2019-06-01T16:30:01.522Z,3.00
2019-06-01T16:32:31.248Z,5.47
2019-06-01T16:35:03.105Z,3.90
2019-06-01T16:37:33.795Z,3.20
2019-06-01T16:40:09.447Z,3.40
2019-06-01T16:42:35.991Z,2.87
2019-06-01T16:45:07.794Z,2.60
2019-06-01T16:47:37.392Z,3.00
2019-06-01T16:50:08.694Z,2.87
2019-06-01T16:52:38.493Z,2.73
2019-06-01T16:55:12.182Z,2.67
2019-06-01T16:57:41.743Z,2.70
2019-06-01T17:00:12.826Z,3.60
2019-06-01T17:02:42.482Z,4.03
2019-06-01T17:05:12.904Z,2.80
2019-06-01T17:07:42.494Z,2.77
2019-06-01T17:10:25.852Z,4.00
2019-06-01T17:12:45.712Z,3.95
2019-06-01T17:15:17.240Z,3.17
2019-06-01T17:17:46.794Z,3.50
2019-06-01T17:20:43.242Z,4.00
2019-06-01T17:23:26.343Z,2.90
2019-06-01T17:25:44.301Z,3.75
2019-06-01T17:28:14.037Z,2.60
2019-06-01T17:30:44.120Z,2.60
2019-06-01T17:33:13.810Z,2.80
2019-06-01T17:35:43.527Z,2.43
2019-06-01T17:38:13.369Z,3.97
2019-06-01T17:40:43.631Z,3.20
2019-06-01T17:43:13.560Z,3.10
2019-06-01T17:45:43.374Z,2.92
2019-06-01T17:48:24.746Z,2.90
2019-06-01T17:50:44.281Z,2.80
2019-06-01T17:53:13.843Z,2.87
2019-06-01T17:55:43.637Z,3.10
2019-06-01T17:58:13.501Z,3.53
2019-06-01T18:00:43.217Z,3.37
2019-06-01T18:03:12.795Z,2.92
2019-06-01T18:05:42.793Z,2.80
2019-06-01T18:08:12.809Z,2.70
2019-06-01T18:10:53.102Z,3.25
2019-06-01T18:13:14.322Z,2.63
2019-06-01T18:15:44.029Z,2.33
2019-06-01T18:18:13.898Z,3.20
2019-06-01T18:20:43.673Z,2.50
2019-06-01T18:23:13.552Z,3.07
2019-06-01T18:25:43.423Z,3.27
2019-06-01T18:28:18.605Z,3.50
2019-06-01T18:30:44.737Z,3.40
2019-06-01T18:33:14.452Z,3.00
2019-06-01T18:35:44.267Z,3.60
2019-06-01T18:38:14.858Z,3.10
2019-06-01T18:40:44.779Z,3.12
2019-06-01T18:43:17.124Z,3.23
2019-06-01T18:45:48.395Z,4.20
2019-06-01T18:48:20.156Z,3.20
2019-06-01T18:50:50.362Z,3.47
2019-06-01T18:53:20.199Z,3.17
2019-06-01T18:55:50.004Z,2.90
2019-06-01T18:58:20.612Z,3.30
2019-06-01T19:00:50.532Z,3.73
2019-06-01T19:03:20.206Z,2.80
2019-06-01T19:05:49.848Z,3.07
2019-06-01T19:08:19.616Z,3.00
2019-06-01T19:10:50.024Z,3.08
2019-06-01T19:13:19.812Z,3.23
2019-06-01T19:15:49.498Z,3.07
2019-06-01T19:18:19.097Z,2.70
2019-06-01T19:20:48.704Z,3.30
2019-06-01T19:23:21.710Z,3.07
2019-06-01T19:25:49.639Z,3.02
2019-06-01T19:28:19.587Z,3.17
2019-06-01T19:30:49.670Z,3.35
2019-06-01T19:33:19.694Z,3.27
2019-06-01T19:35:49.789Z,3.35
2019-06-01T19:38:20.954Z,3.67
2019-06-01T19:40:50.576Z,3.20
2019-06-01T19:43:22.015Z,3.23
2019-06-01T19:45:51.661Z,2.80
2019-06-01T19:48:21.311Z,2.90
2019-06-01T19:50:51.122Z,3.27
2019-06-01T19:53:20.705Z,3.20
2019-06-01T19:55:50.410Z,3.20
2019-06-01T19:58:20.084Z,3.37
2019-06-01T20:00:49.767Z,3.53
2019-06-01T20:03:21.984Z,3.30
2019-06-01T20:05:51.019Z,3.30
2019-06-01T20:08:20.577Z,3.70
2019-06-01T20:10:50.244Z,3.33
2019-06-01T20:13:19.875Z,3.80
2019-06-01T20:15:49.509Z,3.63
2019-06-01T20:18:19.282Z,3.63
2019-06-01T20:20:48.939Z,3.67
2019-06-01T20:23:19.565Z,3.80
2019-06-01T20:25:49.337Z,3.50
2019-06-01T20:28:19.664Z,4.13
2019-06-01T20:30:49.424Z,4.57
2019-06-01T20:33:20.487Z,4.53
2019-06-01T20:35:50.298Z,4.30
2019-06-01T20:38:20.598Z,4.10
2019-06-01T20:40:50.284Z,4.90
2019-06-01T20:43:20.828Z,4.63
2019-06-01T20:45:50.621Z,4.40
2019-06-01T20:48:20.900Z,4.80
2019-06-01T20:50:51.087Z,5.97
2019-06-01T20:53:21.096Z,5.73
2019-06-01T20:55:51.558Z,6.00
2019-06-01T20:58:23.193Z,6.77
2019-06-01T21:00:52.760Z,5.63
2019-06-01T21:03:22.392Z,5.60
2019-06-01T21:05:52.060Z,5.70
2019-06-01T21:08:22.420Z,6.50
2019-06-01T21:10:52.329Z,6.43
2019-06-01T21:13:22.350Z,6.25
2019-06-01T21:15:51.984Z,6.62
2019-06-01T21:18:22.672Z,5.87
2019-06-01T21:20:52.419Z,6.37
2019-06-01T21:23:23.056Z,6.50
2019-06-01T21:25:52.772Z,6.20
2019-06-01T21:28:23.822Z,8.07
2019-06-01T21:30:54.118Z,12.70
2019-06-01T21:33:27.115Z,11.23
2019-06-01T21:35:55.243Z,10.83
2019-06-01T21:38:25.794Z,13.00
2019-06-01T21:40:55.515Z,12.07
2019-06-01T21:43:34.840Z,11.13
2019-06-01T21:45:57.764Z,10.90
2019-06-01T21:48:27.344Z,11.30
2019-06-01T21:50:56.966Z,10.30
2019-06-01T21:53:26.772Z,11.13
2019-06-01T21:55:56.412Z,10.73
2019-06-01T21:58:26.708Z,10.10
2019-06-01T22:00:56.552Z,10.37
2019-06-01T22:03:27.306Z,11.03
2019-06-01T22:05:57.069Z,12.70
2019-06-01T22:08:27.564Z,12.00
2019-06-01T22:10:57.219Z,11.00
2019-06-01T22:13:28.703Z,11.47
2019-06-01T22:15:58.211Z,10.27
2019-06-01T22:18:27.997Z,10.60
2019-06-01T22:20:57.559Z,10.50
2019-06-01T22:23:28.181Z,9.90
2019-06-01T22:25:57.808Z,9.30
2019-06-01T22:28:28.622Z,10.37
2019-06-01T22:30:58.426Z,10.47
2019-06-01T22:33:28.738Z,10.43
2019-06-01T22:35:58.442Z,9.67
2019-06-01T22:38:28.018Z,9.58
2019-06-01T22:40:57.621Z,10.13
2019-06-01T22:43:43.558Z,10.07
2019-06-01T22:45:58.486Z,9.33
2019-06-01T22:48:29.196Z,8.70
2019-06-01T22:50:58.934Z,10.17
2019-06-01T22:53:28.508Z,9.63
2019-06-01T22:55:58.190Z,12.13
2019-06-01T22:58:27.831Z,11.97
2019-06-01T23:00:57.475Z,9.63
2019-06-01T23:03:28.094Z,9.23
2019-06-01T23:05:57.834Z,9.57
2019-06-01T23:08:27.468Z,10.73
2019-06-01T23:10:56.992Z,9.77
2019-06-01T23:13:26.648Z,9.43
2019-06-01T23:15:56.229Z,8.13
2019-06-01T23:18:25.830Z,8.17
2019-06-01T23:20:55.756Z,8.83
2019-06-01T23:23:26.502Z,8.23
2019-06-01T23:25:56.436Z,8.43
2019-06-01T23:28:28.416Z,8.30
2019-06-01T23:30:58.201Z,9.10
2019-06-01T23:33:28.874Z,8.17
2019-06-01T23:35:58.600Z,8.23
2019-06-01T23:38:28.686Z,8.73
2019-06-01T23:40:58.447Z,9.13
2019-06-01T23:43:28.898Z,9.00
2019-06-01T23:45:58.485Z,8.53
2019-06-01T23:48:29.204Z,9.47
2019-06-01T23:50:59.047Z,8.67
2019-06-01T23:53:29.589Z,10.33
2019-06-01T23:55:59.159Z,9.47
2019-06-01T23:58:30.069Z,9.87
